sensor_id;sensor_type;location;lat;lon;timestamp;pressure;altitude;pressure_sealevel;temperature;humidity
73151;BME280;61354;50.758;6.106;2022-09-09T00:00:48;98545.03;;;13.66;91.99
73151;BME280;61354;50.758;6.106;2022-09-09T00:03:22;98545.03;;;13.66;91.73
73151;BME280;61354;50.758;6.106;2022-09-09T00:06:08;98530.69;;;13.64;92.35
73151;BME280;61354;50.758;6.106;2022-09-09T00:09:39;98537.84;;;13.62;91.86
73151;BME280;61354;50.758;6.106;2022-09-09T00:14:36;98534.63;;;13.53;92.14
73151;BME280;61354;50.758;6.106;2022-09-09T00:17:08;98536.22;;;13.54;92.49
73151;BME280;61354;50.758;6.106;2022-09-09T00:24:43;98533.81;;;13.56;92.32
73151;BME280;61354;50.758;6.106;2022-09-09T00:29:51;98533.03;;;13.59;92.46
73151;BME280;61354;50.758;6.106;2022-09-09T00:32:19;98534.66;;;13.56;92.46
73151;BME280;61354;50.758;6.106;2022-09-09T00:35:26;98535.47;;;13.60;92.55
73151;BME280;61354;50.758;6.106;2022-09-09T00:37:53;98525.09;;;13.61;92.82
73151;BME280;61354;50.758;6.106;2022-09-09T00:40:34;98532.25;;;13.58;93.11
73151;BME280;61354;50.758;6.106;2022-09-09T00:49:28;98529.84;;;13.57;92.76
73151;BME280;61354;50.758;6.106;2022-09-09T00:57:31;98530.22;;;13.55;93.36
73151;BME280;61354;50.758;6.106;2022-09-09T01:08:01;98537.03;;;13.61;93.98
73151;BME280;61354;50.758;6.106;2022-09-09T01:10:51;98532.25;;;13.58;94.02
73151;BME280;61354;50.758;6.106;2022-09-09T01:13:34;98540.22;;;13.56;94.13
73151;BME280;61354;50.758;6.106;2022-09-09T01:16:03;98537.84;;;13.65;93.68
73151;BME280;61354;50.758;6.106;2022-09-09T01:18:33;98533.88;;;13.66;93.84
73151;BME280;61354;50.758;6.106;2022-09-09T01:21:27;98535.44;;;13.64;94.00
73151;BME280;61354;50.758;6.106;2022-09-09T01:28:52;98536.66;;;13.66;94.34
73151;BME280;61354;50.758;6.106;2022-09-09T01:31:37;98534.69;;;13.71;94.41
73151;BME280;61354;50.758;6.106;2022-09-09T01:34:12;98533.91;;;13.77;94.42
73151;BME280;61354;50.758;6.106;2022-09-09T01:36:47;98537.13;;;13.83;95.03
73151;BME280;61354;50.758;6.106;2022-09-09T01:39:16;98532.34;;;13.87;94.53
73151;BME280;61354;50.758;6.106;2022-09-09T01:41:42;98526.78;;;13.90;94.71
73151;BME280;61354;50.758;6.106;2022-09-09T01:44:08;98523.59;;;13.99;94.38
73151;BME280;61354;50.758;6.106;2022-09-09T01:46:35;98527.59;;;14.05;94.28
73151;BME280;61354;50.758;6.106;2022-09-09T01:49:02;98530.78;;;14.07;93.88
73151;BME280;61354;50.758;6.106;2022-09-09T01:51:29;98528.81;;;14.11;93.78
73151;BME280;61354;50.758;6.106;2022-09-09T01:53:55;98527.59;;;14.12;94.17
73151;BME280;61354;50.758;6.106;2022-09-09T01:59:07;98534.00;;;14.16;93.91
73151;BME280;61354;50.758;6.106;2022-09-09T02:05:45;98525.22;;;14.22;94.13
73151;BME280;61354;50.758;6.106;2022-09-09T02:07:49;98524.44;;;14.25;93.55
73151;BME280;61354;50.758;6.106;2022-09-09T02:10:25;98524.44;;;14.25;93.71
73151;BME280;61354;50.758;6.106;2022-09-09T02:13:00;98521.22;;;14.30;93.85
73151;BME280;61354;50.758;6.106;2022-09-09T02:18:27;98521.25;;;14.33;93.39
73151;BME280;61354;50.758;6.106;2022-09-09T02:20:56;98516.88;;;14.36;93.21
73151;BME280;61354;50.758;6.106;2022-09-09T02:23:23;98512.84;;;14.33;93.19
73151;BME280;61354;50.758;6.106;2022-09-09T02:25:49;98509.69;;;14.35;93.29
73151;BME280;61354;50.758;6.106;2022-09-09T02:28:19;98509.69;;;14.31;93.25
73151;BME280;61354;50.758;6.106;2022-09-09T02:30:48;98510.47;;;14.28;93.27
73151;BME280;61354;50.758;6.106;2022-09-09T02:33:19;98502.47;;;14.30;93.01
73151;BME280;61354;50.758;6.106;2022-09-09T02:35:45;98510.06;;;14.30;93.16
73151;BME280;61354;50.758;6.106;2022-09-09T02:38:13;98504.47;;;14.30;93.45
73151;BME280;61354;50.758;6.106;2022-09-09T02:40:40;98507.69;;;14.32;93.41
73151;BME280;61354;50.758;6.106;2022-09-09T02:43:06;98507.69;;;14.32;93.51
73151;BME280;61354;50.758;6.106;2022-09-09T02:45:38;98504.47;;;14.30;93.26
73151;BME280;61354;50.758;6.106;2022-09-09T02:48:34;98511.69;;;14.31;93.44
73151;BME280;61354;50.758;6.106;2022-09-09T02:51:06;98502.47;;;14.30;92.86
73151;BME280;61354;50.758;6.106;2022-09-09T02:53:44;98502.88;;;14.29;93.05
73151;BME280;61354;50.758;6.106;2022-09-09T02:56:17;98510.06;;;14.30;92.92
73151;BME280;61354;50.758;6.106;2022-09-09T02:58:45;98509.69;;;14.28;93.25
73151;BME280;61354;50.758;6.106;2022-09-09T03:01:11;98507.69;;;14.28;93.04
73151;BME280;61354;50.758;6.106;2022-09-09T03:03:37;98510.06;;;14.30;93.29
73151;BME280;61354;50.758;6.106;2022-09-09T03:06:03;98502.09;;;14.25;93.20
73151;BME280;61354;50.758;6.106;2022-09-09T03:08:30;98515.66;;;14.23;93.25
73151;BME280;61354;50.758;6.106;2022-09-09T03:10:58;98511.66;;;14.24;92.99
73151;BME280;61354;50.758;6.106;2022-09-09T03:13:24;98501.31;;;14.28;92.94
73151;BME280;61354;50.758;6.106;2022-09-09T03:15:50;98503.69;;;14.26;92.69
73151;BME280;61354;50.758;6.106;2022-09-09T03:18:16;98510.47;;;14.25;93.19
73151;BME280;61354;50.758;6.106;2022-09-09T03:20:42;98507.28;;;14.23;92.86
73151;BME280;61354;50.758;6.106;2022-09-09T03:23:08;98514.84;;;14.26;92.66
73151;BME280;61354;50.758;6.106;2022-09-09T03:25:34;98504.47;;;14.26;92.63
73151;BME280;61354;50.758;6.106;2022-09-09T03:28:00;98510.06;;;14.23;92.58
73151;BME280;61354;50.758;6.106;2022-09-09T03:30:27;98504.50;;;14.23;92.65
73151;BME280;61354;50.758;6.106;2022-09-09T03:32:53;98504.09;;;14.24;92.57
73151;BME280;61354;50.758;6.106;2022-09-09T03:35:18;98507.66;;;14.21;92.75
73151;BME280;61354;50.758;6.106;2022-09-09T03:37:45;98500.06;;;14.18;92.74
73151;BME280;61354;50.758;6.106;2022-09-09T03:40:11;98503.69;;;14.18;92.33
73151;BME280;61354;50.758;6.106;2022-09-09T03:42:37;98503.69;;;14.18;92.11
73151;BME280;61354;50.758;6.106;2022-09-09T03:45:04;98501.28;;;14.21;92.14
73151;BME280;61354;50.758;6.106;2022-09-09T03:47:30;98505.66;;;14.22;91.43
73151;BME280;61354;50.758;6.106;2022-09-09T03:49:56;98512.03;;;14.22;92.39
73151;BME280;61354;50.758;6.106;2022-09-09T03:52:21;98506.09;;;14.24;92.21
73151;BME280;61354;50.758;6.106;2022-09-09T03:54:50;98504.47;;;14.26;91.86
73151;BME280;61354;50.758;6.106;2022-09-09T03:57:16;98504.88;;;14.28;92.01
73151;BME280;61354;50.758;6.106;2022-09-09T03:59:42;98510.06;;;14.30;92.08
73151;BME280;61354;50.758;6.106;2022-09-09T04:02:08;98498.88;;;14.26;91.98
73151;BME280;61354;50.758;6.106;2022-09-09T04:04:34;98498.50;;;14.28;92.11
73151;BME280;61354;50.758;6.106;2022-09-09T04:07:00;98498.09;;;14.26;92.14
73151;BME280;61354;50.758;6.106;2022-09-09T04:09:25;98502.50;;;14.23;92.11
73151;BME280;61354;50.758;6.106;2022-09-09T04:11:51;98494.13;;;14.27;92.69
73151;BME280;61354;50.758;6.106;2022-09-09T04:14:16;98493.31;;;14.26;92.36
73151;BME280;61354;50.758;6.106;2022-09-09T04:16:42;98491.72;;;14.29;91.98
73151;BME280;61354;50.758;6.106;2022-09-09T04:19:10;98496.91;;;14.30;91.84
73151;BME280;61354;50.758;6.106;2022-09-09T04:21:39;98498.88;;;14.30;91.50
73151;BME280;61354;50.758;6.106;2022-09-09T04:24:06;98484.53;;;14.28;91.67
73151;BME280;61354;50.758;6.106;2022-09-09T04:26:32;98483.34;;;14.25;91.70
73151;BME280;61354;50.758;6.106;2022-09-09T04:28:58;98484.13;;;14.26;91.63
73151;BME280;61354;50.758;6.106;2022-09-09T04:31:23;98492.13;;;14.24;91.67
73151;BME280;61354;50.758;6.106;2022-09-09T04:33:50;98493.72;;;14.25;91.78
73151;BME280;61354;50.758;6.106;2022-09-09T04:36:16;98490.13;;;14.28;91.44
73151;BME280;61354;50.758;6.106;2022-09-09T04:38:43;98496.50;;;14.28;91.50
73151;BME280;61354;50.758;6.106;2022-09-09T04:41:09;98501.69;;;14.26;91.77
73151;BME280;61354;50.758;6.106;2022-09-09T04:43:37;98497.28;;;14.25;91.12
73151;BME280;61354;50.758;6.106;2022-09-09T04:46:03;98498.09;;;14.26;91.34
73151;BME280;61354;50.758;6.106;2022-09-09T04:48:29;98505.28;;;14.23;90.99
73151;BME280;61354;50.758;6.106;2022-09-09T04:53:26;98497.28;;;14.22;90.50
73151;BME280;61354;50.758;6.106;2022-09-09T04:56:01;98498.50;;;14.21;90.45
73151;BME280;61354;50.758;6.106;2022-09-09T04:58:26;98506.88;;;14.24;90.74
73151;BME280;61354;50.758;6.106;2022-09-09T05:00:52;98503.28;;;14.16;90.55
73151;BME280;61354;50.758;6.106;2022-09-09T05:03:17;98497.28;;;14.18;90.32
73151;BME280;61354;50.758;6.106;2022-09-09T05:05:44;98508.84;;;14.16;90.39
73151;BME280;61354;50.758;6.106;2022-09-09T05:08:10;98505.28;;;14.16;90.31
73151;BME280;61354;50.758;6.106;2022-09-09T05:10:38;98508.06;;;14.12;90.41
73151;BME280;61354;50.758;6.106;2022-09-09T05:13:04;98516.84;;;14.14;90.28
73151;BME280;61354;50.758;6.106;2022-09-09T05:15:30;98509.25;;;14.11;90.62
73151;BME280;61354;50.758;6.106;2022-09-09T05:18:00;98518.00;;;14.10;90.45
73151;BME280;61354;50.758;6.106;2022-09-09T05:20:26;98510.47;;;14.10;89.75
73151;BME280;61354;50.758;6.106;2022-09-09T05:22:53;98516.44;;;14.12;89.91
73151;BME280;61354;50.758;6.106;2022-09-09T05:25:19;98512.84;;;14.08;90.23
73151;BME280;61354;50.758;6.106;2022-09-09T05:27:45;98507.25;;;14.08;90.29
73151;BME280;61354;50.758;6.106;2022-09-09T05:30:11;98509.25;;;14.11;90.42
73151;BME280;61354;50.758;6.106;2022-09-09T05:32:36;98510.06;;;14.12;90.21
73151;BME280;61354;50.758;6.106;2022-09-09T05:35:02;98500.88;;;14.11;90.26
73151;BME280;61354;50.758;6.106;2022-09-09T05:37:28;98502.88;;;14.14;89.76
73151;BME280;61354;50.758;6.106;2022-09-09T05:39:55;98498.88;;;14.12;89.66
73151;BME280;61354;50.758;6.106;2022-09-09T05:42:20;98503.28;;;14.13;89.81
73151;BME280;61354;50.758;6.106;2022-09-09T05:44:46;98510.84;;;14.12;89.79
73151;BME280;61354;50.758;6.106;2022-09-09T05:47:11;98498.47;;;14.13;89.44
73151;BME280;61354;50.758;6.106;2022-09-09T05:49:37;98506.47;;;14.15;89.56
73151;BME280;61354;50.758;6.106;2022-09-09T05:52:02;98498.91;;;14.15;89.56
73151;BME280;61354;50.758;6.106;2022-09-09T05:54:29;98501.28;;;14.21;89.01
73151;BME280;61354;50.758;6.106;2022-09-09T05:56:55;98501.28;;;14.21;88.93
73151;BME280;61354;50.758;6.106;2022-09-09T05:59:21;98499.69;;;14.23;88.49
73151;BME280;61354;50.758;6.106;2022-09-09T06:01:48;98491.72;;;14.25;88.67
73151;BME280;61354;50.758;6.106;2022-09-09T06:04:13;98500.88;;;14.26;88.20
73151;BME280;61354;50.758;6.106;2022-09-09T06:06:39;98496.50;;;14.25;88.36
73151;BME280;61354;50.758;6.106;2022-09-09T06:09:09;98502.09;;;14.25;88.13
73151;BME280;61354;50.758;6.106;2022-09-09T06:11:36;98504.50;;;14.23;87.77
73151;BME280;61354;50.758;6.106;2022-09-09T06:14:02;98502.88;;;14.25;88.04
73151;BME280;61354;50.758;6.106;2022-09-09T06:16:29;98503.28;;;14.24;87.50
73151;BME280;61354;50.758;6.106;2022-09-09T06:18:56;98503.66;;;14.22;87.49
73151;BME280;61354;50.758;6.106;2022-09-09T06:21:28;98515.66;;;14.23;87.61
73151;BME280;61354;50.758;6.106;2022-09-09T06:23:54;98496.50;;;14.25;87.79
73151;BME280;61354;50.758;6.106;2022-09-09T06:26:22;98506.09;;;14.24;87.13
73151;BME280;61354;50.758;6.106;2022-09-09T06:28:49;98505.69;;;14.25;86.91
73151;BME280;61354;50.758;6.106;2022-09-09T06:31:17;98506.47;;;14.29;86.78
73151;BME280;61354;50.758;6.106;2022-09-09T06:33:47;98498.09;;;14.33;86.89
73151;BME280;61354;50.758;6.106;2022-09-09T06:36:17;98504.47;;;14.37;86.12
73151;BME280;61354;50.758;6.106;2022-09-09T06:38:44;98497.28;;;14.43;86.28
73151;BME280;61354;50.758;6.106;2022-09-09T06:41:11;98487.75;;;14.48;85.83
73151;BME280;61354;50.758;6.106;2022-09-09T06:43:38;98498.13;;;14.54;85.81
73151;BME280;61354;50.758;6.106;2022-09-09T06:46:10;98486.94;;;14.61;85.29
73151;BME280;61354;50.758;6.106;2022-09-09T06:48:38;98489.34;;;14.74;85.11
73151;BME280;61354;50.758;6.106;2022-09-09T06:51:09;98484.53;;;14.85;85.01
73151;BME280;61354;50.758;6.106;2022-09-09T06:53:37;98493.72;;;14.89;84.58
73151;BME280;61354;50.758;6.106;2022-09-09T06:58:44;98492.06;;;15.02;84.70
73151;BME280;61354;50.758;6.106;2022-09-09T07:01:15;98489.28;;;15.02;83.25
73151;BME280;61354;50.758;6.106;2022-09-09T07:03:42;98497.25;;;15.07;83.93
73151;BME280;61354;50.758;6.106;2022-09-09T07:06:14;98502.03;;;15.10;83.29
73151;BME280;61354;50.758;6.106;2022-09-09T07:08:40;98507.22;;;15.15;82.77
73151;BME280;61354;50.758;6.106;2022-09-09T07:11:07;98501.19;;;15.21;83.30
73151;BME280;61354;50.758;6.106;2022-09-09T07:13:34;98501.97;;;15.21;83.04
73151;BME280;61354;50.758;6.106;2022-09-09T07:16:11;98511.56;;;15.27;83.08
73151;BME280;61354;50.758;6.106;2022-09-09T07:18:39;98511.56;;;15.31;82.49
73151;BME280;61354;50.758;6.106;2022-09-09T07:21:04;98515.88;;;15.42;82.20
73151;BME280;61354;50.758;6.106;2022-09-09T07:23:31;98505.09;;;15.48;82.07
73151;BME280;61354;50.758;6.106;2022-09-09T07:25:58;98510.25;;;15.53;81.91
73151;BME280;61354;50.758;6.106;2022-09-09T07:28:24;98504.66;;;15.57;81.67
73151;BME280;61354;50.758;6.106;2022-09-09T07:31:17;98502.22;;;15.62;81.10
73151;BME280;61354;50.758;6.106;2022-09-09T07:33:44;98513.84;;;15.57;80.86
73151;BME280;61354;50.758;6.106;2022-09-09T07:36:13;98507.03;;;15.55;80.11
73151;BME280;61354;50.758;6.106;2022-09-09T07:38:40;98508.25;;;15.57;80.88
73151;BME280;61354;50.758;6.106;2022-09-09T07:41:07;98506.66;;;15.56;80.14
73151;BME280;61354;50.758;6.106;2022-09-09T07:43:41;98510.63;;;15.62;80.16
73151;BME280;61354;50.758;6.106;2022-09-09T07:46:08;98508.19;;;15.72;79.81
73151;BME280;61354;50.758;6.106;2022-09-09T07:48:34;98505.78;;;15.81;78.49
73151;BME280;61354;50.758;6.106;2022-09-09T07:51:13;98508.13;;;15.89;79.04
73151;BME280;61354;50.758;6.106;2022-09-09T07:53:40;98505.28;;;15.93;78.55
73151;BME280;61354;50.758;6.106;2022-09-09T07:56:11;98509.69;;;15.94;78.29
73151;BME280;61354;50.758;6.106;2022-09-09T07:58:38;98508.88;;;15.97;77.31
73151;BME280;61354;50.758;6.106;2022-09-09T08:01:19;98516.84;;;15.99;77.35
73151;BME280;61354;50.758;6.106;2022-09-09T08:03:46;98516.44;;;16.00;76.93
73151;BME280;61354;50.758;6.106;2022-09-09T08:06:12;98516.41;;;16.04;76.87
73151;BME280;61354;50.758;6.106;2022-09-09T08:08:39;98522.91;;;15.90;75.99
73151;BME280;61354;50.758;6.106;2022-09-09T08:11:12;98515.75;;;15.82;76.57
73151;BME280;61354;50.758;6.106;2022-09-09T08:13:39;98528.53;;;15.83;77.05
73151;BME280;61354;50.758;6.106;2022-09-09T08:16:13;98520.13;;;15.83;76.09
73151;BME280;61354;50.758;6.106;2022-09-09T08:18:40;98521.72;;;15.84;75.68
73151;BME280;61354;50.758;6.106;2022-09-09T08:21:15;98532.13;;;15.87;75.98
73151;BME280;61354;50.758;6.106;2022-09-09T08:23:43;98525.72;;;15.86;75.67
73151;BME280;61354;50.758;6.106;2022-09-09T08:26:14;98534.91;;;15.90;75.16
73151;BME280;61354;50.758;6.106;2022-09-09T08:28:41;98538.03;;;16.03;76.70
73151;BME280;61354;50.758;6.106;2022-09-09T08:31:13;98546.41;;;16.10;76.58
73151;BME280;61354;50.758;6.106;2022-09-09T08:33:40;98544.75;;;16.16;76.58
73151;BME280;61354;50.758;6.106;2022-09-09T08:36:09;98542.78;;;16.13;75.72
73151;BME280;61354;50.758;6.106;2022-09-09T08:38:36;98541.94;;;16.16;76.42
73151;BME280;61354;50.758;6.106;2022-09-09T08:58:16;98543.31;;;15.90;76.36
73151;BME280;61354;50.758;6.106;2022-09-09T09:09:26;98542.38;;;16.11;76.66
73151;BME280;61354;50.758;6.106;2022-09-09T09:12:00;98546.00;;;16.08;76.32
73151;BME280;61354;50.758;6.106;2022-09-09T09:14:33;98535.97;;;16.14;76.85
73151;BME280;61354;50.758;6.106;2022-09-09T09:19:27;98547.75;;;16.47;75.34
73151;BME280;61354;50.758;6.106;2022-09-09T09:24:56;98542.00;;;16.65;73.57
73151;BME280;61354;50.758;6.106;2022-09-09T09:27:36;98536.72;;;16.71;72.84
73151;BME280;61354;50.758;6.106;2022-09-09T09:32:39;98549.03;;;16.87;72.69
73151;BME280;61354;50.758;6.106;2022-09-09T09:35:11;98535.97;;;17.11;72.38
73151;BME280;61354;50.758;6.106;2022-09-09T09:37:40;98546.13;;;17.36;72.13
73151;BME280;61354;50.758;6.106;2022-09-09T09:40:24;98552.00;;;17.49;70.89
73151;BME280;61354;50.758;6.106;2022-09-09T09:43:18;98549.06;;;17.59;69.85
73151;BME280;61354;50.758;6.106;2022-09-09T09:45:45;98541.06;;;17.58;69.16
73151;BME280;61354;50.758;6.106;2022-09-09T09:48:12;98545.47;;;17.59;68.87
73151;BME280;61354;50.758;6.106;2022-09-09T09:51:05;98550.63;;;17.64;69.74
73151;BME280;61354;50.758;6.106;2022-09-09T09:53:35;98548.38;;;17.52;68.70
73151;BME280;61354;50.758;6.106;2022-09-09T09:56:29;98554.47;;;17.43;69.17
73151;BME280;61354;50.758;6.106;2022-09-09T09:58:55;98562.97;;;17.36;69.43
73151;BME280;61354;50.758;6.106;2022-09-09T10:01:22;98547.06;;;17.26;68.57
73151;BME280;61354;50.758;6.106;2022-09-09T10:03:56;98554.25;;;17.27;68.49
73151;BME280;61354;50.758;6.106;2022-09-09T10:06:30;98561.16;;;17.19;68.20
73151;BME280;61354;50.758;6.106;2022-09-09T10:08:55;98557.81;;;17.31;69.71
73151;BME280;61354;50.758;6.106;2022-09-09T10:11:28;98563.09;;;17.25;69.31
73151;BME280;61354;50.758;6.106;2022-09-09T10:19:33;98560.75;;;17.17;70.90
73151;BME280;61354;50.758;6.106;2022-09-09T10:22:27;98560.59;;;17.34;70.63
73151;BME280;61354;50.758;6.106;2022-09-09T10:25:38;98552.78;;;17.49;70.79
73151;BME280;61354;50.758;6.106;2022-09-09T10:33:51;98555.81;;;17.31;71.25
73151;BME280;61354;50.758;6.106;2022-09-09T10:36:25;98551.06;;;17.25;70.40
73151;BME280;61354;50.758;6.106;2022-09-09T10:39:04;98557.44;;;17.29;70.31
73151;BME280;61354;50.758;6.106;2022-09-09T10:55:42;98570.81;;;16.65;73.11
73151;BME280;61354;50.758;6.106;2022-09-09T10:58:23;98572.41;;;16.66;73.65
73151;BME280;61354;50.758;6.106;2022-09-09T11:01:02;98565.22;;;16.65;73.50
73151;BME280;61354;50.758;6.106;2022-09-09T11:03:29;98556.63;;;16.87;73.08
73151;BME280;61354;50.758;6.106;2022-09-09T11:06:00;98558.41;;;17.11;73.14
73151;BME280;61354;50.758;6.106;2022-09-09T11:08:30;98557.59;;;17.14;71.93
73151;BME280;61354;50.758;6.106;2022-09-09T11:11:03;98556.75;;;17.18;72.73
73151;BME280;61354;50.758;6.106;2022-09-09T11:13:32;98553.53;;;17.19;71.93
73151;BME280;61354;50.758;6.106;2022-09-09T11:18:39;98563.41;;;16.93;72.69
73151;BME280;61354;50.758;6.106;2022-09-09T11:21:12;98568.25;;;16.89;72.56
73151;BME280;61354;50.758;6.106;2022-09-09T11:23:52;98575.78;;;16.96;77.26
73151;BME280;61354;50.758;6.106;2022-09-09T11:26:41;98571.06;;;16.89;76.93
73151;BME280;61354;50.758;6.106;2022-09-09T11:29:27;98572.16;;;16.99;79.63
73151;BME280;61354;50.758;6.106;2022-09-09T11:40:36;98580.63;;;16.92;80.77
73151;BME280;61354;50.758;6.106;2022-09-09T11:43:23;98577.41;;;16.97;81.17
73151;BME280;61354;50.758;6.106;2022-09-09T11:49:04;98592.41;;;16.76;81.75
73151;BME280;61354;50.758;6.106;2022-09-09T11:51:32;98579.06;;;16.87;82.14
73151;BME280;61354;50.758;6.106;2022-09-09T11:53:59;98567.75;;;17.01;81.46
73151;BME280;61354;50.758;6.106;2022-09-09T11:56:45;98571.31;;;17.05;79.16
73151;BME280;61354;50.758;6.106;2022-09-09T11:59:37;98577.69;;;17.09;79.48
73151;BME280;61354;50.758;6.106;2022-09-09T12:02:14;98576.28;;;16.87;78.21
73151;BME280;61354;50.758;6.106;2022-09-09T12:04:54;98570.25;;;16.92;78.56
73151;BME280;61354;50.758;6.106;2022-09-09T12:12:47;98567.06;;;17.28;77.87
73151;BME280;61354;50.758;6.106;2022-09-09T12:15:20;98557.28;;;17.43;78.05
73151;BME280;61354;50.758;6.106;2022-09-09T12:17:49;98562.44;;;17.48;75.92
73151;BME280;61354;50.758;6.106;2022-09-09T12:20:36;98562.56;;;17.72;76.84
73151;BME280;61354;50.758;6.106;2022-09-09T12:28:54;98572.97;;;17.75;72.96
73151;BME280;61354;50.758;6.106;2022-09-09T12:33:52;98564.13;;;17.76;72.58
73151;BME280;61354;50.758;6.106;2022-09-09T12:36:33;98557.03;;;17.64;73.92
73151;BME280;61354;50.758;6.106;2022-09-09T12:39:10;98551.38;;;17.68;74.04
73151;BME280;61354;50.758;6.106;2022-09-09T12:41:40;98554.06;;;17.79;75.04
73151;BME280;61354;50.758;6.106;2022-09-09T12:44:09;98551.53;;;17.92;73.83
73151;BME280;61354;50.758;6.106;2022-09-09T12:46:45;98543.84;;;17.96;71.90
73151;BME280;61354;50.758;6.106;2022-09-09T12:49:37;98539.09;;;18.16;72.35
73151;BME280;61354;50.758;6.106;2022-09-09T12:52:07;98541.47;;;18.21;71.54
73151;BME280;61354;50.758;6.106;2022-09-09T12:54:35;98538.88;;;18.03;71.10
73151;BME280;61354;50.758;6.106;2022-09-09T12:57:01;98528.00;;;18.09;70.23
73151;BME280;61354;50.758;6.106;2022-09-09T12:59:36;98537.00;;;18.24;71.32
73151;BME280;61354;50.758;6.106;2022-09-09T13:02:10;98535.41;;;18.23;71.75
73151;BME280;61354;50.758;6.106;2022-09-09T13:04:36;98532.25;;;18.21;71.00
73151;BME280;61354;50.758;6.106;2022-09-09T13:07:06;98527.47;;;18.18;70.09
73151;BME280;61354;50.758;6.106;2022-09-09T13:09:44;98530.31;;;18.14;70.13
73151;BME280;61354;50.758;6.106;2022-09-09T13:12:44;98533.09;;;18.18;70.45
73151;BME280;61354;50.758;6.106;2022-09-09T13:18:45;98526.06;;;18.02;70.60
73151;BME280;61354;50.758;6.106;2022-09-09T13:21:11;98519.63;;;18.05;71.22
73151;BME280;61354;50.758;6.106;2022-09-09T13:23:50;98511.22;;;18.02;70.36
73151;BME280;61354;50.758;6.106;2022-09-09T13:26:24;98518.97;;;17.94;71.36
73151;BME280;61354;50.758;6.106;2022-09-09T13:28:51;98518.25;;;17.86;71.08
73151;BME280;61354;50.758;6.106;2022-09-09T13:31:38;98518.38;;;17.79;72.22
73151;BME280;61354;50.758;6.106;2022-09-09T13:34:11;98526.63;;;17.59;76.49
73151;BME280;61354;50.758;6.106;2022-09-09T13:36:38;98518.59;;;17.24;77.28
73151;BME280;61354;50.758;6.106;2022-09-09T13:39:13;98515.97;;;17.09;79.30
73151;BME280;61354;50.758;6.106;2022-09-09T13:41:44;98519.38;;;16.86;81.69
73151;BME280;61354;50.758;6.106;2022-09-09T13:44:26;98521.44;;;16.82;82.87
73151;BME280;61354;50.758;6.106;2022-09-09T13:47:19;98519.44;;;16.79;84.64
73151;BME280;61354;50.758;6.106;2022-09-09T13:49:45;98520.97;;;16.87;84.61
73151;BME280;61354;50.758;6.106;2022-09-09T13:52:16;98515.50;;;16.77;85.65
73151;BME280;61354;50.758;6.106;2022-09-09T13:54:48;98519.44;;;16.79;85.94
73151;BME280;61354;50.758;6.106;2022-09-09T13:57:16;98520.53;;;16.96;85.77
73151;BME280;61354;50.758;6.106;2022-09-09T13:59:44;98515.25;;;17.02;86.52
73151;BME280;61354;50.758;6.106;2022-09-09T14:02:10;98520.03;;;17.05;85.11
73151;BME280;61354;50.758;6.106;2022-09-09T14:04:35;98513.75;;;17.28;84.13
73151;BME280;61354;50.758;6.106;2022-09-09T14:07:01;98511.69;;;17.32;83.89
73151;BME280;61354;50.758;6.106;2022-09-09T14:09:27;98513.44;;;17.22;83.58
73151;BME280;61354;50.758;6.106;2022-09-09T14:11:53;98521.72;;;16.95;81.95
73151;BME280;61354;50.758;6.106;2022-09-09T14:14:20;98522.59;;;16.88;81.87
73151;BME280;61354;50.758;6.106;2022-09-09T14:16:45;98523.44;;;16.82;83.01
73151;BME280;61354;50.758;6.106;2022-09-09T14:19:11;98532.69;;;16.79;82.91
73151;BME280;61354;50.758;6.106;2022-09-09T14:21:36;98536.09;;;17.01;82.30
73151;BME280;61354;50.758;6.106;2022-09-09T14:24:02;98527.25;;;17.02;83.20
73151;BME280;61354;50.758;6.106;2022-09-09T14:26:27;98533.44;;;16.83;83.99
73151;BME280;61354;50.758;6.106;2022-09-09T14:28:55;98545.50;;;16.80;83.78
73151;BME280;61354;50.758;6.106;2022-09-09T14:31:22;98542.66;;;16.83;84.10
73151;BME280;61354;50.758;6.106;2022-09-09T14:33:48;98555.22;;;16.64;83.90
73151;BME280;61354;50.758;6.106;2022-09-09T14:36:13;98553.34;;;16.47;83.88
73151;BME280;61354;50.758;6.106;2022-09-09T14:38:40;98545.31;;;16.49;85.37
73151;BME280;61354;50.758;6.106;2022-09-09T14:41:07;98548.56;;;16.44;84.88
73151;BME280;61354;50.758;6.106;2022-09-09T14:43:34;98541.41;;;16.39;84.80
73151;BME280;61354;50.758;6.106;2022-09-09T14:48:32;98540.53;;;16.46;86.41
73151;BME280;61354;50.758;6.106;2022-09-09T14:51:07;98534.78;;;16.68;86.25
73151;BME280;61354;50.758;6.106;2022-09-09T14:53:34;98531.03;;;16.85;86.49
73151;BME280;61354;50.758;6.106;2022-09-09T14:56:08;98539.97;;;17.14;86.33
73151;BME280;61354;50.758;6.106;2022-09-09T14:58:35;98536.13;;;17.35;85.97
73151;BME280;61354;50.758;6.106;2022-09-09T15:01:08;98530.44;;;17.42;84.32
73151;BME280;61354;50.758;6.106;2022-09-09T15:03:38;98534.03;;;17.43;84.19
73151;BME280;61354;50.758;6.106;2022-09-09T15:09:14;98530.84;;;17.40;83.44
73151;BME280;61354;50.758;6.106;2022-09-09T15:11:40;98535.16;;;17.14;83.69
73151;BME280;61354;50.758;6.106;2022-09-09T15:14:08;98536.75;;;17.12;83.75
73151;BME280;61354;50.758;6.106;2022-09-09T15:16:45;98544.84;;;17.06;83.48
73151;BME280;61354;50.758;6.106;2022-09-09T15:19:11;98540.22;;;16.89;83.76
73151;BME280;61354;50.758;6.106;2022-09-09T15:21:37;98530.97;;;16.92;85.06
73151;BME280;61354;50.758;6.106;2022-09-09T15:24:04;98538.16;;;16.93;84.32
73151;BME280;61354;50.758;6.106;2022-09-09T15:26:30;98529.75;;;16.93;83.69
73151;BME280;61354;50.758;6.106;2022-09-09T15:28:56;98538.16;;;16.93;84.10
73151;BME280;61354;50.758;6.106;2022-09-09T15:31:26;98527.72;;;16.97;84.39
73151;BME280;61354;50.758;6.106;2022-09-09T15:33:55;98531.66;;;17.03;83.89
73151;BME280;61354;50.758;6.106;2022-09-09T15:36:31;98531.88;;;17.20;83.89
73151;BME280;61354;50.758;6.106;2022-09-09T15:38:58;98531.78;;;17.30;83.23
73151;BME280;61354;50.758;6.106;2022-09-09T15:41:23;98529.44;;;17.59;81.68
73151;BME280;61354;50.758;6.106;2022-09-09T15:43:51;98530.84;;;17.75;80.65